Terminal Aerodrome Forecast
Issued by NWS

Home | Current Version | Previous Version | Text Only | Print | Product List | Glossary Off
Versions: 1 2 3 4 5 6 7 8 9 10 11 12 13 14

250
FTUS43 KOAX 110541
TAFCDR
TAF
KCDR 110541Z 1106/1206 26008KT P6SM SCT250
     FM111500 28012G21KT P6SM BKN200
     FM120100 32010KT P6SM BKN150=

USA.gov is the U.S. government's official web portal to all federal, state and local government web resources and services.